Time,TemperatureF,DewpointF,PressureIn,WindDirection,WindDirectionDegrees,WindSpeedMPH,WindSpeedGustMPH,Humidity,HourlyPrecipIn,Conditions,Clouds,dailyrainin,SoftwareType,DateUTC
2013-09-18 00:00:00,58.2,50.0,25.97,ESE,112,0.0,1.0,74,0.00,,---,0.00,VWS V13.01,2013-09-18 07:00:00,
2013-09-18 00:04:00,59.8,50.4,30.80,ESE,121,0.0,0.0,71,0.00,,---,0.00,VWS V13.01,2013-09-18 07:04:00,
2013-09-18 00:05:00,58.1,49.9,25.97,ESE,121,0.0,0.0,74,0.00,,---,0.00,VWS V13.01,2013-09-18 07:05:00,
2013-09-18 00:06:00,58.1,49.9,25.97,ESE,121,0.0,0.0,74,0.00,,---,0.00,VWS V13.01,2013-09-18 07:06:00,
2013-09-18 00:09:00,59.7,50.3,28.39,ESE,121,0.0,0.0,71,0.00,,---,0.00,VWS V13.01,2013-09-18 07:09:00,
2013-09-18 00:14:00,59.6,50.2,25.97,ESE,121,0.0,1.0,71,0.00,,---,0.00,VWS V13.01,2013-09-18 07:14:00,
2013-09-18 00:19:00,59.5,50.5,25.97,ESE,121,0.0,1.0,72,0.00,,---,0.00,VWS V13.01,2013-09-18 07:19:00,
2013-09-18 00:24:00,59.3,50.3,25.97,ESE,121,0.0,1.0,72,0.00,,---,0.00,VWS V13.01,2013-09-18 07:24:00,
2013-09-18 00:29:00,59.1,50.1,25.97,ESE,121,0.0,1.0,72,0.00,,---,0.00,VWS V13.01,2013-09-18 07:29:00,
2013-09-18 00:34:00,59.0,50.0,25.97,ESE,121,0.0,1.0,72,0.00,,---,0.00,VWS V13.01,2013-09-18 07:34:00,
2013-09-18 00:39:00,58.8,50.2,25.97,ESE,121,0.0,1.0,73,0.00,,---,0.00,VWS V13.01,2013-09-18 07:39:00,
2013-09-18 00:44:00,58.7,50.1,25.97,ESE,121,0.0,1.0,73,0.00,,---,0.00,VWS V13.01,2013-09-18 07:44:00,
2013-09-18 00:50:00,58.5,49.9,25.97,ESE,121,0.0,1.0,73,0.00,,---,0.00,VWS V13.01,2013-09-18 07:50:00,
2013-09-18 00:55:00,58.4,49.8,25.97,ESE,121,0.0,1.0,73,0.00,,---,0.00,VWS V13.01,2013-09-18 07:55:00,
2013-09-18 01:00:00,58.3,49.7,25.97,ESE,121,0.0,1.0,73,0.00,,---,0.00,VWS V13.01,2013-09-18 08:00:00,
2013-09-18 01:07:00,58.2,50.0,25.97,ESE,112,0.0,1.0,74,0.00,,---,0.00,VWS V13.01,2013-09-18 08:07:00,
2013-09-18 01:12:00,58.1,49.9,25.97,ESE,121,0.0,0.0,74,0.00,,---,0.00,VWS V13.01,2013-09-18 08:12:00,
2013-09-18 01:17:00,57.9,49.7,25.97,ESE,121,0.0,0.0,74,0.00,,---,0.00,VWS V13.01,2013-09-18 08:17:00,
2013-09-18 01:22:00,57.7,49.5,28.39,ESE,121,0.0,0.0,74,0.00,,---,0.00,VWS V13.01,2013-09-18 08:22:00,
2013-09-18 01:27:00,57.6,49.4,28.39,ESE,121,0.0,0.0,74,0.00,,---,0.00,VWS V13.01,2013-09-18 08:27:00,
2013-09-18 01:32:00,57.4,49.5,28.39,ESE,121,0.0,0.0,75,0.00,,---,0.00,VWS V13.01,2013-09-18 08:32:00,
2013-09-18 01:37:00,57.4,49.5,28.39,ESE,121,0.0,0.0,75,0.00,,---,0.00,VWS V13.01,2013-09-18 08:37:00,
2013-09-18 01:42:00,57.3,49.5,28.39,ESE,121,0.0,0.0,75,0.00,,---,0.00,VWS V13.01,2013-09-18 08:42:00,
2013-09-18 01:47:00,57.2,49.4,30.80,ESE,121,0.0,0.0,75,0.00,,---,0.00,VWS V13.01,2013-09-18 08:47:00,
2013-09-18 01:52:00,57.0,49.2,30.80,ESE,121,0.0,0.0,75,0.00,,---,0.00,VWS V13.01,2013-09-18 08:52:00,
2013-09-18 01:57:00,56.8,49.0,29.59,ESE,121,0.0,0.0,75,0.00,,---,0.00,VWS V13.01,2013-09-18 08:57:00,
2013-09-18 02:02:00,56.6,49.1,29.59,ESE,121,0.0,0.0,76,0.00,,---,0.00,VWS V13.01,2013-09-18 09:02:00,
2013-09-18 02:07:00,56.4,48.9,29.59,ESE,121,0.0,0.0,76,0.00,,---,0.00,VWS V13.01,2013-09-18 09:07:00,
2013-09-18 02:12:00,56.2,49.1,29.59,ESE,121,0.0,0.0,77,0.00,,---,0.00,VWS V13.01,2013-09-18 09:12:00,
2013-09-18 02:17:00,56.0,48.9,29.59,ESE,121,0.0,0.0,77,0.00,,---,0.00,VWS V13.01,2013-09-18 09:17:00,
2013-09-18 02:22:00,55.9,48.8,29.59,ESE,121,0.0,0.0,77,0.00,,---,0.00,VWS V13.01,2013-09-18 09:22:00,
2013-09-18 02:27:00,55.8,49.0,32.01,ESE,121,0.0,0.0,78,0.00,,---,0.00,VWS V13.01,2013-09-18 09:27:00,
2013-09-18 02:32:00,55.7,49.0,32.01,ESE,121,0.0,0.0,78,0.00,,---,0.00,VWS V13.01,2013-09-18 09:32:00,
2013-09-18 02:37:00,55.6,48.9,27.18,ESE,121,0.0,0.0,78,0.00,,---,0.00,VWS V13.01,2013-09-18 09:37:00,
2013-09-18 02:42:00,55.4,48.7,27.18,ESE,121,0.0,0.0,78,0.00,,---,0.00,VWS V13.01,2013-09-18 09:42:00,
2013-09-18 02:47:00,55.3,48.6,27.18,ESE,121,0.0,0.0,78,0.00,,---,0.00,VWS V13.01,2013-09-18 09:47:00,
2013-09-18 02:52:00,55.3,48.9,27.18,ESE,121,0.0,0.0,79,0.00,,---,0.00,VWS V13.01,2013-09-18 09:52:00,
2013-09-18 02:57:00,55.3,48.9,27.18,ESE,121,0.0,0.0,79,0.00,,---,0.00,VWS V13.01,2013-09-18 09:57:00,
2013-09-18 03:02:00,55.3,48.9,27.18,ESE,121,0.0,0.0,79,0.00,,---,0.00,VWS V13.01,2013-09-18 10:02:00,
2013-09-18 03:07:00,55.3,48.9,27.18,ESE,121,0.0,0.0,79,0.00,,---,0.00,VWS V13.01,2013-09-18 10:07:00,
2013-09-18 03:12:00,55.3,48.9,26.04,ESE,121,0.0,0.0,79,0.00,,---,0.00,VWS V13.01,2013-09-18 10:12:00,
2013-09-18 03:17:00,55.3,48.9,26.04,ESE,121,0.0,0.0,79,0.00,,---,0.00,VWS V13.01,2013-09-18 10:17:00,
2013-09-18 03:22:00,55.3,48.6,26.04,ESE,121,0.0,0.0,78,0.00,,---,0.00,VWS V13.01,2013-09-18 10:22:00,
2013-09-18 03:27:00,55.1,48.7,26.04,ESE,121,0.0,0.0,79,0.00,,---,0.00,VWS V13.01,2013-09-18 10:27:00,
2013-09-18 03:32:00,55.0,48.6,26.04,ESE,121,0.0,0.0,79,0.00,,---,0.00,VWS V13.01,2013-09-18 10:32:00,
2013-09-18 03:37:00,54.9,48.5,26.04,ESE,121,0.0,0.0,79,0.00,,---,0.00,VWS V13.01,2013-09-18 10:37:00,
2013-09-18 03:42:00,54.8,48.4,26.04,ESE,121,0.0,0.0,79,0.00,,---,0.00,VWS V13.01,2013-09-18 10:42:00,
2013-09-18 03:47:00,54.8,48.4,26.04,ESE,121,0.0,0.0,79,0.00,,---,0.00,VWS V13.01,2013-09-18 10:47:00,
2013-09-18 03:52:00,54.7,48.3,26.04,ESE,121,0.0,0.0,79,0.00,,---,0.00,VWS V13.01,2013-09-18 10:52:00,
2013-09-18 03:57:00,54.5,48.5,26.04,ESE,121,0.0,1.0,80,0.00,,---,0.00,VWS V13.01,2013-09-18 10:57:00,
2013-09-18 04:02:00,54.3,48.3,26.04,ESE,121,0.0,1.0,80,0.00,,---,0.00,VWS V13.01,2013-09-18 11:02:00,
2013-09-18 04:07:00,54.2,48.2,26.04,ESE,121,0.0,0.0,80,0.00,,---,0.00,VWS V13.01,2013-09-18 11:07:00,
2013-09-18 04:12:00,54.2,48.2,26.04,ESE,121,0.0,0.0,80,0.00,,---,0.00,VWS V13.01,2013-09-18 11:12:00,
2013-09-18 04:17:00,54.2,48.2,26.04,ESE,121,0.0,0.0,80,0.00,,---,0.00,VWS V13.01,2013-09-18 11:17:00,
2013-09-18 04:22:00,54.1,48.1,26.04,ESE,121,0.0,0.0,80,0.00,,---,0.00,VWS V13.01,2013-09-18 11:22:00,
2013-09-18 04:27:00,54.1,48.1,26.04,ESE,121,0.0,0.0,80,0.00,,---,0.00,VWS V13.01,2013-09-18 11:27:00,
2013-09-18 04:32:00,53.9,48.2,26.04,ESE,121,0.0,0.0,81,0.00,,---,0.00,VWS V13.01,2013-09-18 11:32:00,
2013-09-18 04:37:00,53.8,48.1,26.04,ESE,121,0.0,0.0,81,0.00,,---,0.00,VWS V13.01,2013-09-18 11:37:00,
2013-09-18 04:42:00,53.8,48.1,26.04,ESE,121,0.0,0.0,81,0.00,,---,0.00,VWS V13.01,2013-09-18 11:42:00,
2013-09-18 04:47:00,53.7,48.0,26.04,ESE,121,0.0,0.0,81,0.00,,---,0.00,VWS V13.01,2013-09-18 11:47:00,
2013-09-18 04:52:00,53.6,47.9,26.04,ESE,121,0.0,0.0,81,0.00,,---,0.00,VWS V13.01,2013-09-18 11:52:00,
2013-09-18 04:57:00,53.6,47.9,26.04,ESE,121,0.0,0.0,81,0.00,,---,0.00,VWS V13.01,2013-09-18 11:57:00,
2013-09-18 05:02:00,53.4,47.7,26.04,ESE,121,0.0,0.0,81,0.00,,---,0.00,VWS V13.01,2013-09-18 12:02:00,
2013-09-18 05:07:00,53.3,47.6,26.04,ESE,121,0.0,0.0,81,0.00,,---,0.00,VWS V13.01,2013-09-18 12:07:00,
2013-09-18 05:12:00,53.2,47.9,26.04,ESE,121,0.0,0.0,82,0.00,,---,0.00,VWS V13.01,2013-09-18 12:12:00,
2013-09-18 05:17:00,53.1,47.8,26.04,ESE,121,0.0,0.0,82,0.00,,---,0.00,VWS V13.01,2013-09-18 12:17:00,
2013-09-18 05:22:00,53.1,47.8,26.04,ESE,121,0.0,0.0,82,0.00,,---,0.00,VWS V13.01,2013-09-18 12:22:00,
2013-09-18 05:27:00,53.1,47.8,26.04,ESE,121,0.0,0.0,82,0.00,,---,0.00,VWS V13.01,2013-09-18 12:27:00,
2013-09-18 05:32:00,53.0,47.7,26.04,ESE,121,0.0,0.0,82,0.00,,---,0.00,VWS V13.01,2013-09-18 12:32:00,
2013-09-18 05:37:00,53.0,47.7,26.04,ESE,121,0.0,0.0,82,0.00,,---,0.00,VWS V13.01,2013-09-18 12:37:00,
2013-09-18 05:42:00,52.9,47.6,26.04,ESE,121,0.0,0.0,82,0.00,,---,0.00,VWS V13.01,2013-09-18 12:42:00,
2013-09-18 05:47:00,52.8,47.5,26.04,ESE,121,0.0,0.0,82,0.00,,---,0.00,VWS V13.01,2013-09-18 12:47:00,
2013-09-18 05:52:00,52.8,47.5,26.04,ESE,121,0.0,0.0,82,0.00,,---,0.00,VWS V13.01,2013-09-18 12:52:00,
2013-09-18 05:57:00,52.7,47.7,26.04,ESE,121,0.0,0.0,83,0.00,,---,0.00,VWS V13.01,2013-09-18 12:57:00,
2013-09-18 06:02:00,52.7,47.7,26.04,ESE,121,0.0,0.0,83,0.00,,---,0.00,VWS V13.01,2013-09-18 13:02:00,
2013-09-18 06:07:00,52.6,47.6,26.04,ESE,121,0.0,0.0,83,0.00,,---,0.00,VWS V13.01,2013-09-18 13:07:00,
2013-09-18 06:12:00,52.6,47.6,26.04,ESE,121,0.0,0.0,83,0.00,,---,0.00,VWS V13.01,2013-09-18 13:12:00,
2013-09-18 06:17:00,52.6,47.6,26.04,ESE,121,0.0,0.0,83,0.00,,---,0.00,VWS V13.01,2013-09-18 13:17:00,
2013-09-18 06:22:00,52.6,47.6,26.04,ESE,121,0.0,0.0,83,0.00,,---,0.00,VWS V13.01,2013-09-18 13:22:00,
2013-09-18 06:27:00,52.6,47.6,26.04,ESE,121,0.0,0.0,83,0.00,,---,0.00,VWS V13.01,2013-09-18 13:27:00,
2013-09-18 06:32:00,52.7,47.7,26.04,ESE,121,0.0,0.0,83,0.00,,---,0.00,VWS V13.01,2013-09-18 13:32:00,
2013-09-18 06:37:00,52.7,47.7,26.04,ESE,121,0.0,0.0,83,0.00,,---,0.00,VWS V13.01,2013-09-18 13:37:00,
2013-09-18 06:42:00,52.7,47.7,26.04,ESE,121,0.0,0.0,83,0.00,,---,0.00,VWS V13.01,2013-09-18 13:42:00,
2013-09-18 06:47:00,52.8,47.8,26.04,ESE,121,0.0,0.0,83,0.00,,---,0.00,VWS V13.01,2013-09-18 13:47:00,
2013-09-18 06:52:00,52.8,47.8,26.04,ESE,121,0.0,0.0,83,0.00,,---,0.00,VWS V13.01,2013-09-18 13:52:00,
2013-09-18 06:57:00,52.8,47.8,26.04,ESE,121,0.0,0.0,83,0.00,,---,0.00,VWS V13.01,2013-09-18 13:57:00,
2013-09-18 07:02:00,52.9,47.9,26.04,ESE,121,0.0,0.0,83,0.00,,---,0.00,VWS V13.01,2013-09-18 14:02:00,
2013-09-18 07:07:00,53.0,48.0,26.04,ESE,121,0.0,0.0,83,0.00,,---,0.00,VWS V13.01,2013-09-18 14:07:00,
2013-09-18 07:12:00,53.2,48.2,26.04,ESE,121,0.0,0.0,83,0.00,,---,0.00,VWS V13.01,2013-09-18 14:12:00,
2013-09-18 07:17:00,53.2,47.9,26.04,ESE,121,0.0,0.0,82,0.00,,---,0.00,VWS V13.01,2013-09-18 14:17:00,
2013-09-18 07:22:00,53.3,48.0,30.03,ESE,121,0.0,0.0,82,0.00,,---,0.00,VWS V13.01,2013-09-18 14:22:00,
2013-09-18 07:27:00,53.3,48.3,30.03,ESE,121,0.0,0.0,83,0.00,,---,0.00,VWS V13.01,2013-09-18 14:27:00,
2013-09-18 07:32:00,53.4,48.4,30.03,ESE,121,0.0,0.0,83,0.00,,---,0.00,VWS V13.01,2013-09-18 14:32:00,
2013-09-18 07:37:00,53.5,48.5,30.03,ESE,121,0.0,0.0,83,0.00,,---,0.00,VWS V13.01,2013-09-18 14:37:00,
2013-09-18 07:42:00,53.6,48.2,30.03,ESE,121,0.0,0.0,82,0.00,,---,0.00,VWS V13.01,2013-09-18 14:42:00,
2013-09-18 07:47:00,53.7,48.3,30.03,ESE,121,0.0,0.0,82,0.00,,---,0.00,VWS V13.01,2013-09-18 14:47:00,
2013-09-18 07:52:00,53.7,48.3,30.03,ESE,121,0.0,0.0,82,0.00,,---,0.00,VWS V13.01,2013-09-18 14:52:00,
2013-09-18 07:57:00,53.8,48.4,30.03,ESE,121,0.0,0.0,82,0.00,,---,0.00,VWS V13.01,2013-09-18 14:57:00,
2013-09-18 07:58:00,61.8,51.5,25.23,ESE,121,0.0,0.0,69,0.00,,---,0.00,VWS V13.01,2013-09-18 14:58:00,
2013-09-18 07:59:00,62.0,51.3,25.23,ESE,121,0.0,0.0,68,0.00,,---,0.00,VWS V13.01,2013-09-18 14:59:00,
2013-09-18 08:02:00,53.9,48.5,30.03,ESE,121,0.0,0.0,82,0.00,,---,0.00,VWS V13.01,2013-09-18 15:02:00,
2013-09-18 08:07:00,54.1,49.1,30.03,ESE,121,0.0,0.0,83,0.00,,---,0.00,VWS V13.01,2013-09-18 15:07:00,
2013-09-18 08:12:00,54.5,49.5,30.03,ESE,121,0.0,0.0,83,0.00,,---,0.00,VWS V13.01,2013-09-18 15:12:00,
2013-09-18 08:17:00,55.1,49.7,30.03,ESE,121,0.0,0.0,82,0.00,,---,0.00,VWS V13.01,2013-09-18 15:17:00,
2013-09-18 08:22:00,55.9,51.1,30.03,ESE,121,0.0,0.0,84,0.00,,---,0.00,VWS V13.01,2013-09-18 15:22:00,
2013-09-18 08:27:00,56.5,51.1,30.03,ESE,121,0.0,0.0,82,0.00,,---,0.00,VWS V13.01,2013-09-18 15:27:00,
2013-09-18 08:33:00,57.1,51.3,30.03,ESE,121,0.0,0.0,81,0.00,,---,0.00,VWS V13.01,2013-09-18 15:33:00,
2013-09-18 08:38:00,57.7,51.2,30.03,ESE,121,0.0,0.0,79,0.00,,---,0.00,VWS V13.01,2013-09-18 15:38:00,
2013-09-18 08:43:00,58.5,51.7,30.03,ESE,121,0.0,0.0,78,0.00,,---,0.00,VWS V13.01,2013-09-18 15:43:00,
2013-09-18 08:48:00,59.3,51.4,30.03,ESE,121,0.0,0.0,75,0.00,,---,0.00,VWS V13.01,2013-09-18 15:48:00,
2013-09-18 08:53:00,60.2,51.5,30.03,ESE,121,0.0,0.0,73,0.00,,---,0.00,VWS V13.01,2013-09-18 15:53:00,
2013-09-18 08:58:00,61.2,51.7,25.23,ESE,121,0.0,0.0,71,0.00,,---,0.00,VWS V13.01,2013-09-18 15:58:00,
2013-09-18 09:03:00,62.1,51.4,25.23,ESE,121,0.0,0.0,68,0.00,,---,0.00,VWS V13.01,2013-09-18 16:03:00,
2013-09-18 09:07:00,62.9,50.5,25.23,ESE,121,0.0,0.0,64,0.00,,---,0.00,VWS V13.01,2013-09-18 16:07:00,
2013-09-18 09:12:00,64.0,51.2,25.23,ESE,121,0.0,0.0,63,0.00,,---,0.00,VWS V13.01,2013-09-18 16:12:00,
2013-09-18 09:18:00,64.8,51.0,25.23,ESE,121,0.0,0.0,61,0.00,,---,0.00,VWS V13.01,2013-09-18 16:18:00,
2013-09-18 09:23:00,65.5,51.3,25.23,ESE,121,0.0,0.0,60,0.00,,---,0.00,VWS V13.01,2013-09-18 16:23:00,
2013-09-18 09:28:00,66.2,51.0,25.23,ESE,121,0.0,0.0,58,0.00,,---,0.00,VWS V13.01,2013-09-18 16:28:00,
2013-09-18 09:33:00,66.9,51.2,25.23,ESE,121,0.0,0.0,57,0.00,,---,0.00,VWS V13.01,2013-09-18 16:33:00,
2013-09-18 09:38:00,67.5,51.8,25.97,ESE,121,1.0,3.0,57,0.00,,---,0.00,VWS V13.01,2013-09-18 16:38:00,
2013-09-18 09:43:00,68.1,52.3,25.97,ESE,110,1.0,3.0,57,0.00,,---,0.00,VWS V13.01,2013-09-18 16:43:00,
2013-09-18 09:48:00,68.5,53.2,25.97,East,86,0.0,3.0,58,0.00,,---,0.00,VWS V13.01,2013-09-18 16:48:00,
2013-09-18 09:53:00,68.7,53.3,29.59,East,83,0.0,3.0,58,0.00,,---,0.00,VWS V13.01,2013-09-18 16:53:00,
2013-09-18 09:58:00,69.1,53.7,29.59,North,360,0.0,5.0,58,0.00,,---,0.00,VWS V13.01,2013-09-18 16:58:00,
2013-09-18 10:03:00,69.5,53.1,29.59,North,355,0.0,5.0,56,0.00,,---,0.00,VWS V13.01,2013-09-18 17:03:00,
2013-09-18 10:08:00,69.9,52.5,29.59,NE,37,0.0,1.0,54,0.00,,---,0.00,VWS V13.01,2013-09-18 17:08:00,
2013-09-18 10:13:00,70.1,52.2,29.59,NNE,26,0.0,1.0,53,0.00,,---,0.00,VWS V13.01,2013-09-18 17:13:00,
2013-09-18 10:18:00,70.4,52.5,29.59,NE,40,0.0,1.0,53,0.00,,---,0.00,VWS V13.01,2013-09-18 17:18:00,
2013-09-18 10:23:00,71.0,52.5,29.59,NE,40,0.0,1.0,52,0.00,,---,0.00,VWS V13.01,2013-09-18 17:23:00,
2013-09-18 10:28:00,71.7,52.6,29.59,NE,40,0.0,1.0,51,0.00,,---,0.00,VWS V13.01,2013-09-18 17:28:00,
2013-09-18 10:33:00,72.3,52.1,29.59,SE,133,0.0,1.0,49,0.00,,---,0.00,VWS V13.01,2013-09-18 17:33:00,
2013-09-18 10:38:00,72.8,49.0,29.59,SE,134,0.0,1.0,43,0.00,,---,0.00,VWS V13.01,2013-09-18 17:38:00,
2013-09-18 10:43:00,73.2,50.0,29.59,SE,134,0.0,1.0,44,0.00,,---,0.00,VWS V13.01,2013-09-18 17:43:00,
2013-09-18 10:48:00,73.7,48.6,29.59,SE,134,0.0,1.0,41,0.00,,---,0.00,VWS V13.01,2013-09-18 17:48:00,
2013-09-18 10:53:00,74.1,50.2,29.59,SE,132,0.0,1.0,43,0.00,,---,0.00,VWS V13.01,2013-09-18 17:53:00,
2013-09-18 10:58:00,74.4,49.2,29.59,ESE,112,0.0,2.0,41,0.00,,---,0.00,VWS V13.01,2013-09-18 17:58:00,
2013-09-18 11:03:00,74.9,48.3,29.59,ESE,107,1.0,2.0,39,0.00,,---,0.00,VWS V13.01,2013-09-18 18:03:00,
2013-09-18 11:08:00,75.1,47.1,29.59,NE,41,0.0,3.0,37,0.00,,---,0.00,VWS V13.01,2013-09-18 18:08:00,
2013-09-18 11:13:00,75.4,48.0,29.59,ESE,109,0.0,6.0,38,0.00,,---,0.00,VWS V13.01,2013-09-18 18:13:00,
2013-09-18 11:18:00,75.6,48.9,29.59,ESE,121,0.0,6.0,39,0.00,,---,0.00,VWS V13.01,2013-09-18 18:18:00,
2013-09-18 11:23:00,75.9,48.5,29.59,ESE,121,1.0,6.0,38,0.00,,---,0.00,VWS V13.01,2013-09-18 18:23:00,
2013-09-18 11:28:00,76.4,48.2,29.59,ESE,120,2.0,6.0,37,0.00,,---,0.00,VWS V13.01,2013-09-18 18:28:00,
2013-09-18 11:33:00,76.7,47.8,29.59,ESE,114,1.0,6.0,36,0.00,,---,0.00,VWS V13.01,2013-09-18 18:33:00,
2013-09-18 11:38:00,77.2,48.2,29.59,SE,129,3.0,6.0,36,0.00,,---,0.00,VWS V13.01,2013-09-18 18:38:00,
2013-09-18 11:43:00,77.5,47.7,29.59,SSE,150,0.0,6.0,35,0.00,,---,0.00,VWS V13.01,2013-09-18 18:43:00,
2013-09-18 11:48:00,78.0,47.4,29.59,SSE,159,0.0,6.0,34,0.00,,---,0.00,VWS V13.01,2013-09-18 18:48:00,
2013-09-18 11:55:00,78.4,47.7,29.59,SE,130,0.0,7.0,34,0.00,,---,0.00,VWS V13.01,2013-09-18 18:55:00,
2013-09-18 12:00:00,78.7,47.2,29.59,SSE,150,0.0,7.0,33,0.00,,---,0.00,VWS V13.01,2013-09-18 19:00:00,
2013-09-18 12:05:00,78.8,45.6,29.59,East,86,0.0,9.0,31,0.00,,---,0.00,VWS V13.01,2013-09-18 19:05:00,
2013-09-18 12:10:00,78.8,44.8,29.59,NW,307,3.0,9.0,30,0.00,,---,0.00,VWS V13.01,2013-09-18 19:10:00,
2013-09-18 12:15:00,78.6,46.3,19.47,SE,146,1.0,9.0,32,0.00,,---,0.00,VWS V13.01,2013-09-18 19:15:00,
2013-09-18 12:20:00,79.1,47.6,17.05,SSE,153,0.0,9.0,33,0.00,,---,0.00,VWS V13.01,2013-09-18 19:20:00,
2013-09-18 12:25:00,79.4,45.3,17.05,NW,307,0.0,9.0,30,0.00,,---,0.00,VWS V13.01,2013-09-18 19:25:00,
2013-09-18 12:30:00,79.7,46.4,19.47,ESE,111,0.0,9.0,31,0.00,,---,0.00,VWS V13.01,2013-09-18 19:30:00,
2013-09-18 12:35:00,80.2,46.0,19.47,East,86,0.0,9.0,30,0.00,,---,0.00,VWS V13.01,2013-09-18 19:35:00,
2013-09-18 12:40:00,80.9,48.3,19.47,ESE,123,0.0,9.0,32,0.00,,---,0.00,VWS V13.01,2013-09-18 19:40:00,
2013-09-18 12:45:00,81.7,47.3,19.47,SW,223,0.0,9.0,30,0.00,,---,0.00,VWS V13.01,2013-09-18 19:45:00,
2013-09-18 12:51:00,82.2,44.9,19.47,ESE,123,0.0,9.0,27,0.00,,---,0.00,VWS V13.01,2013-09-18 19:51:00,
2013-09-18 12:56:00,82.3,45.0,19.47,SE,141,0.0,9.0,27,0.00,,---,0.00,VWS V13.01,2013-09-18 19:56:00,
2013-09-18 13:01:00,82.4,46.1,19.47,SE,130,4.0,9.0,28,0.00,,---,0.00,VWS V13.01,2013-09-18 20:01:00,
2013-09-18 13:06:00,82.4,45.1,19.47,ENE,65,1.0,5.0,27,0.00,,---,0.00,VWS V13.01,2013-09-18 20:06:00,
2013-09-18 13:11:00,82.1,45.8,19.47,SE,144,0.0,7.0,28,0.00,,---,0.00,VWS V13.01,2013-09-18 20:11:00,
2013-09-18 13:16:00,82.2,45.9,19.47,SSW,211,1.0,7.0,28,0.00,,---,0.00,VWS V13.01,2013-09-18 20:16:00,
2013-09-18 13:21:00,82.3,50.3,19.47,South,191,2.0,9.0,33,0.00,,---,0.00,VWS V13.01,2013-09-18 20:21:00,
2013-09-18 13:26:00,82.7,50.7,19.47,WSW,240,2.0,10.0,33,0.00,,---,0.00,VWS V13.01,2013-09-18 20:26:00,
2013-09-18 13:31:00,83.1,50.2,19.47,WSW,242,2.0,10.0,32,0.00,,---,0.00,VWS V13.01,2013-09-18 20:31:00,
2013-09-18 13:36:00,83.1,51.0,19.47,SSW,192,1.0,13.0,33,0.00,,---,0.00,VWS V13.01,2013-09-18 20:36:00,
2013-09-18 13:41:00,83.2,49.5,26.01,SW,225,2.0,13.0,31,0.00,,---,0.00,VWS V13.01,2013-09-18 20:41:00,
2013-09-18 13:46:00,83.3,50.4,26.01,SSE,160,0.0,13.0,32,0.00,,---,0.00,VWS V13.01,2013-09-18 20:46:00,
2013-09-18 13:51:00,83.8,50.8,26.01,South,182,0.0,13.0,32,0.00,,---,0.00,VWS V13.01,2013-09-18 20:51:00,
2013-09-18 13:56:00,84.4,50.5,26.41,South,190,0.0,13.0,31,0.00,,---,0.00,VWS V13.01,2013-09-18 20:56:00,
2013-09-18 14:01:00,84.7,49.9,26.41,SSW,204,0.0,13.0,30,0.00,,---,0.00,VWS V13.01,2013-09-18 21:01:00,
2013-09-18 14:06:00,84.6,49.8,26.41,SE,140,3.0,12.0,30,0.00,,---,0.00,VWS V13.01,2013-09-18 21:06:00,
2013-09-18 14:11:00,84.7,49.9,26.41,South,180,0.0,12.0,30,0.00,,---,0.00,VWS V13.01,2013-09-18 21:11:00,
2013-09-18 14:16:00,84.8,50.8,26.41,SSW,203,1.0,12.0,31,0.00,,---,0.00,VWS V13.01,2013-09-18 21:16:00,
2013-09-18 14:21:00,84.8,50.0,26.41,South,173,0.0,12.0,30,0.00,,---,0.00,VWS V13.01,2013-09-18 21:21:00,
2013-09-18 14:26:00,85.2,50.3,26.41,South,180,3.0,12.0,30,0.00,,---,0.00,VWS V13.01,2013-09-18 21:26:00,
2013-09-18 14:31:00,85.6,50.7,26.41,SSW,197,0.0,12.0,30,0.00,,---,0.00,VWS V13.01,2013-09-18 21:31:00,
2013-09-18 14:36:00,85.5,51.4,26.41,WSW,251,0.0,12.0,31,0.00,,---,0.00,VWS V13.01,2013-09-18 21:36:00,
2013-09-18 14:41:00,84.7,51.6,26.41,West,281,0.0,12.0,32,0.00,,---,0.00,VWS V13.01,2013-09-18 21:41:00,
2013-09-18 14:46:00,83.4,50.5,26.41,West,273,10.0,12.0,32,0.00,,---,0.00,VWS V13.01,2013-09-18 21:46:00,
2013-09-18 14:51:00,82.9,50.9,26.83,NW,325,2.0,12.0,33,0.00,,---,0.00,VWS V13.01,2013-09-18 21:51:00,
2013-09-18 14:56:00,82.4,49.6,26.83,WNW,286,6.0,12.0,32,0.00,,---,0.00,VWS V13.01,2013-09-18 21:56:00,
2013-09-18 15:01:00,82.3,50.3,26.83,WNW,300,3.0,14.0,33,0.00,,---,0.00,VWS V13.01,2013-09-18 22:01:00,
2013-09-18 15:06:00,82.0,50.9,26.83,WNW,284,6.0,12.0,34,0.00,,---,0.00,VWS V13.01,2013-09-18 22:06:00,
2013-09-18 15:11:00,81.3,50.3,26.83,NW,320,1.0,13.0,34,0.00,,---,0.00,VWS V13.01,2013-09-18 22:11:00,
2013-09-18 15:16:00,81.4,50.4,26.83,WNW,287,2.0,13.0,34,0.00,,---,0.00,VWS V13.01,2013-09-18 22:16:00,
2013-09-18 15:21:00,81.4,50.4,26.83,West,280,6.0,13.0,34,0.00,,---,0.00,VWS V13.01,2013-09-18 22:21:00,
2013-09-18 15:26:00,81.5,51.2,26.83,NW,322,3.0,13.0,35,0.00,,---,0.00,VWS V13.01,2013-09-18 22:26:00,
2013-09-18 15:31:00,81.7,50.6,26.83,NNW,344,0.0,13.0,34,0.00,,---,0.00,VWS V13.01,2013-09-18 22:31:00,
2013-09-18 15:36:00,81.8,49.9,26.83,WNW,300,1.0,13.0,33,0.00,,---,0.00,VWS V13.01,2013-09-18 22:36:00,
2013-09-18 15:41:00,81.7,49.0,26.41,West,264,9.0,13.0,32,0.00,,---,0.00,VWS V13.01,2013-09-18 22:41:00,
2013-09-18 15:46:00,81.6,48.9,26.41,NNW,345,4.0,13.0,32,0.00,,---,0.00,VWS V13.01,2013-09-18 22:46:00,
2013-09-18 15:51:00,81.4,49.6,26.41,NW,313,3.0,13.0,33,0.00,,---,0.00,VWS V13.01,2013-09-18 22:51:00,
2013-09-18 15:56:00,81.5,48.8,26.41,WNW,292,4.0,13.0,32,0.00,,---,0.00,VWS V13.01,2013-09-18 22:56:00,
2013-09-18 16:01:00,81.3,48.7,26.41,West,281,5.0,13.0,32,0.00,,---,0.00,VWS V13.01,2013-09-18 23:01:00,
2013-09-18 16:07:00,81.2,48.6,26.41,WNW,282,5.0,11.0,32,0.00,,---,0.00,VWS V13.01,2013-09-18 23:07:00,
2013-09-18 16:13:00,81.1,48.5,26.41,NNW,327,2.0,12.0,32,0.00,,---,0.00,VWS V13.01,2013-09-18 23:13:00,
2013-09-18 16:18:00,80.9,48.3,26.41,NNW,333,6.0,12.0,32,0.00,,---,0.00,VWS V13.01,2013-09-18 23:18:00,
2013-09-18 16:23:00,80.7,48.1,26.41,WNW,290,5.0,13.0,32,0.00,,---,0.00,VWS V13.01,2013-09-18 23:23:00,
2013-09-18 16:28:00,80.5,48.8,26.41,West,280,0.0,13.0,33,0.00,,---,0.00,VWS V13.01,2013-09-18 23:28:00,
2013-09-18 16:33:00,80.7,49.0,26.41,North,10,5.0,13.0,33,0.00,,---,0.00,VWS V13.01,2013-09-18 23:33:00,
2013-09-18 16:38:00,80.5,48.0,26.41,WNW,286,3.0,13.0,32,0.00,,---,0.00,VWS V13.01,2013-09-18 23:38:00,
2013-09-18 16:43:00,80.1,47.6,26.41,NW,307,2.0,13.0,32,0.00,,---,0.00,VWS V13.01,2013-09-18 23:43:00,
2013-09-18 16:48:00,79.9,48.3,26.41,WNW,294,2.0,13.0,33,0.00,,---,0.00,VWS V13.01,2013-09-18 23:48:00,
2013-09-18 16:53:00,79.9,48.3,26.41,NW,314,0.0,13.0,33,0.00,,---,0.00,VWS V13.01,2013-09-18 23:53:00,
2013-09-18 16:58:00,80.2,48.5,26.41,NW,324,0.0,13.0,33,0.00,,---,0.00,VWS V13.01,2013-09-18 23:58:00,
2013-09-18 17:03:00,80.6,48.0,26.41,WNW,294,5.0,13.0,32,0.00,,---,0.00,VWS V13.01,2013-09-19 00:03:00,
2013-09-18 17:08:00,80.3,47.8,26.41,NW,321,0.0,7.0,32,0.00,,---,0.00,VWS V13.01,2013-09-19 00:08:00,
2013-09-18 17:13:00,80.2,48.5,26.83,WNW,283,5.0,10.0,33,0.00,,---,0.00,VWS V13.01,2013-09-19 00:13:00,
2013-09-18 17:18:00,80.2,48.5,26.83,West,263,4.0,11.0,33,0.00,,---,0.00,VWS V13.01,2013-09-19 00:18:00,
2013-09-18 17:23:00,80.2,48.5,26.83,WNW,290,6.0,11.0,33,0.00,,---,0.00,VWS V13.01,2013-09-19 00:23:00,
2013-09-18 17:28:00,80.4,48.7,26.83,North,355,1.0,11.0,33,0.00,,---,0.00,VWS V13.01,2013-09-19 00:28:00,
2013-09-18 17:33:00,80.2,48.5,26.83,WNW,296,0.0,11.0,33,0.00,,---,0.00,VWS V13.01,2013-09-19 00:33:00,
2013-09-18 17:39:00,79.9,48.3,26.83,WNW,289,3.0,12.0,33,0.00,,---,0.00,VWS V13.01,2013-09-19 00:39:00,
2013-09-18 17:44:00,79.4,47.0,26.83,WNW,300,4.0,12.0,32,0.00,,---,0.00,VWS V13.01,2013-09-19 00:44:00,
2013-09-18 17:49:00,79.1,46.7,26.83,WSW,237,5.0,12.0,32,0.00,,---,0.00,VWS V13.01,2013-09-19 00:49:00,
2013-09-18 17:54:00,78.5,46.2,26.83,WSW,238,7.0,16.0,32,0.00,,---,0.00,VWS V13.01,2013-09-19 00:54:00,
2013-09-18 17:59:00,77.1,45.8,26.83,SW,223,0.0,16.0,33,0.00,,---,0.00,VWS V13.01,2013-09-19 00:59:00,
2013-09-18 18:05:00,76.6,46.9,26.83,WNW,286,8.0,8.0,35,0.00,,---,0.00,VWS V13.01,2013-09-19 01:05:00,
2013-09-18 18:10:00,76.0,46.4,26.83,West,281,1.0,11.0,35,0.00,,---,0.00,VWS V13.01,2013-09-19 01:10:00,
2013-09-18 18:15:00,75.6,47.5,26.83,WSW,247,0.0,11.0,37,0.00,,---,0.00,VWS V13.01,2013-09-19 01:15:00,
2013-09-18 18:20:00,75.3,47.3,26.83,WSW,245,2.0,11.0,37,0.00,,---,0.00,VWS V13.01,2013-09-19 01:20:00,
2013-09-18 18:25:00,74.7,47.4,26.83,WSW,247,6.0,11.0,38,0.00,,---,0.00,VWS V13.01,2013-09-19 01:25:00,
2013-09-18 18:30:00,74.2,48.3,26.83,West,281,5.0,11.0,40,0.00,,---,0.00,VWS V13.01,2013-09-19 01:30:00,
2013-09-18 18:35:00,73.8,48.0,26.83,WNW,299,5.0,11.0,40,0.00,,---,0.00,VWS V13.01,2013-09-19 01:35:00,
2013-09-18 18:40:00,73.3,48.2,26.83,WNW,296,3.0,12.0,41,0.00,,---,0.00,VWS V13.01,2013-09-19 01:40:00,
2013-09-18 18:45:00,72.9,47.8,26.83,SW,215,9.0,12.0,41,0.00,,---,0.00,VWS V13.01,2013-09-19 01:45:00,
2013-09-18 18:50:00,72.2,48.5,26.83,West,267,3.0,13.0,43,0.00,,---,0.00,VWS V13.01,2013-09-19 01:50:00,
2013-09-18 18:55:00,71.3,48.3,26.83,West,281,2.0,13.0,44,0.00,,---,0.00,VWS V13.01,2013-09-19 01:55:00,
2013-09-18 19:00:00,70.0,48.3,26.83,SW,234,1.0,15.0,46,0.00,,---,0.00,VWS V13.01,2013-09-19 02:00:00,
2013-09-18 19:05:00,69.2,48.1,26.83,WNW,283,11.0,12.0,47,0.00,,---,0.00,VWS V13.01,2013-09-19 02:05:00,
2013-09-18 19:10:00,68.3,47.9,26.83,WSW,246,0.0,12.0,48,0.00,,---,0.00,VWS V13.01,2013-09-19 02:10:00,
2013-09-18 19:15:00,67.9,48.1,26.83,SW,221,0.0,12.0,49,0.00,,---,0.00,VWS V13.01,2013-09-19 02:15:00,
2013-09-18 19:20:00,67.6,47.8,26.83,SW,231,0.0,12.0,49,0.00,,---,0.00,VWS V13.01,2013-09-19 02:20:00,
2013-09-18 19:25:00,67.2,47.4,26.83,WSW,240,1.0,12.0,49,0.00,,---,0.00,VWS V13.01,2013-09-19 02:25:00,
2013-09-18 19:31:00,66.9,47.7,26.83,SW,229,0.0,12.0,50,0.00,,---,0.00,VWS V13.01,2013-09-19 02:31:00,
2013-09-18 19:36:00,66.7,47.5,26.41,West,281,0.0,12.0,50,0.00,,---,0.00,VWS V13.01,2013-09-19 02:36:00,
2013-09-18 19:41:00,66.4,47.2,26.41,SW,227,8.0,12.0,50,0.00,,---,0.00,VWS V13.01,2013-09-19 02:41:00,
2013-09-18 19:46:00,66.1,47.5,26.41,WSW,237,1.0,12.0,51,0.00,,---,0.00,VWS V13.01,2013-09-19 02:46:00,
2013-09-18 19:51:00,65.9,47.3,26.41,WSW,237,5.0,12.0,51,0.00,,---,0.00,VWS V13.01,2013-09-19 02:51:00,
2013-09-18 19:56:00,65.7,47.6,26.41,SW,215,0.0,12.0,52,0.00,,---,0.00,VWS V13.01,2013-09-19 02:56:00,
2013-09-18 19:57:00,64.0,47.5,26.41,WNW,296,0.0,6.0,55,0.00,,---,0.00,VWS V13.01,2013-09-19 02:57:00,
2013-09-18 19:58:00,64.0,47.0,26.41,WNW,296,0.0,6.0,54,0.00,,---,0.00,VWS V13.01,2013-09-19 02:58:00,
2013-09-18 19:59:00,64.0,47.5,26.41,WNW,296,0.0,6.0,55,0.00,,---,0.00,VWS V13.01,2013-09-19 02:59:00,
2013-09-18 20:00:00,63.9,47.4,26.41,WNW,296,0.0,6.0,55,0.00,,---,0.00,VWS V13.01,2013-09-19 03:00:00,
2013-09-18 20:01:00,65.6,47.5,26.41,WNW,284,0.0,12.0,52,0.00,,---,0.00,VWS V13.01,2013-09-19 03:01:00,
2013-09-18 20:02:00,63.8,47.3,26.41,WNW,296,0.0,0.0,55,0.00,,---,0.00,VWS V13.01,2013-09-19 03:02:00,
2013-09-18 20:03:00,63.7,47.2,26.41,WNW,296,0.0,0.0,55,0.00,,---,0.00,VWS V13.01,2013-09-19 03:03:00,
2013-09-18 20:04:00,63.5,47.1,26.41,WNW,296,0.0,0.0,55,0.00,,---,0.00,VWS V13.01,2013-09-19 03:04:00,
2013-09-18 20:05:00,63.5,47.1,26.41,WNW,296,0.0,0.0,55,0.00,,---,0.00,VWS V13.01,2013-09-19 03:05:00,
2013-09-18 20:06:00,65.5,47.4,26.41,SW,232,0.0,2.0,52,0.00,,---,0.00,VWS V13.01,2013-09-19 03:06:00,
2013-09-18 20:07:00,63.4,47.0,26.41,WNW,296,0.0,0.0,55,0.00,,---,0.00,VWS V13.01,2013-09-19 03:07:00,
2013-09-18 20:08:00,63.3,46.9,26.41,WNW,296,0.0,0.0,55,0.00,,---,0.00,VWS V13.01,2013-09-19 03:08:00,
2013-09-18 20:09:00,63.2,46.8,26.41,WNW,296,0.0,0.0,55,0.00,,---,0.00,VWS V13.01,2013-09-19 03:09:00,
2013-09-18 20:11:00,65.4,47.3,26.41,WNW,291,1.0,3.0,52,0.00,,---,0.00,VWS V13.01,2013-09-19 03:11:00,
2013-09-18 20:16:00,65.2,47.7,26.41,WNW,290,0.0,6.0,53,0.00,,---,0.00,VWS V13.01,2013-09-19 03:16:00,
2013-09-18 20:21:00,65.1,47.6,26.41,West,276,2.0,6.0,53,0.00,,---,0.00,VWS V13.01,2013-09-19 03:21:00,
2013-09-18 20:26:00,64.9,47.9,26.41,SW,228,0.0,6.0,54,0.00,,---,0.00,VWS V13.01,2013-09-19 03:26:00,
2013-09-18 20:31:00,64.8,47.8,26.41,West,277,2.0,6.0,54,0.00,,---,0.00,VWS V13.01,2013-09-19 03:31:00,
2013-09-18 20:36:00,64.7,47.7,26.41,WNW,296,0.0,6.0,54,0.00,,---,0.00,VWS V13.01,2013-09-19 03:36:00,
2013-09-18 20:41:00,64.7,47.7,26.41,WNW,296,0.0,6.0,54,0.00,,---,0.00,VWS V13.01,2013-09-19 03:41:00,
2013-09-18 20:46:00,64.5,47.0,26.41,WNW,296,0.0,6.0,53,0.00,,---,0.00,VWS V13.01,2013-09-19 03:46:00,
2013-09-18 20:51:00,64.4,47.4,26.41,WNW,296,0.0,6.0,54,0.00,,---,0.00,VWS V13.01,2013-09-19 03:51:00,
2013-09-18 20:57:00,64.2,47.2,26.41,WNW,296,0.0,6.0,54,0.00,,---,0.00,VWS V13.01,2013-09-19 03:57:00,
2013-09-18 21:03:00,63.9,47.4,26.41,WNW,296,0.0,0.0,55,0.00,,---,0.00,VWS V13.01,2013-09-19 04:03:00,
2013-09-18 21:08:00,63.5,47.1,26.41,WNW,296,0.0,0.0,55,0.00,,---,0.00,VWS V13.01,2013-09-19 04:08:00,
2013-09-18 21:13:00,63.1,47.2,26.41,WNW,296,0.0,0.0,56,0.00,,---,0.00,VWS V13.01,2013-09-19 04:13:00,
2013-09-18 21:18:00,62.8,47.4,26.41,WNW,296,0.0,0.0,57,0.00,,---,0.00,VWS V13.01,2013-09-19 04:18:00,
2013-09-18 21:23:00,62.5,47.1,26.41,WNW,296,0.0,0.0,57,0.00,,---,0.00,VWS V13.01,2013-09-19 04:23:00,
2013-09-18 21:28:00,62.1,47.2,26.41,WNW,296,0.0,1.0,58,0.00,,---,0.00,VWS V13.01,2013-09-19 04:28:00,
2013-09-18 21:33:00,61.9,47.4,26.41,WNW,296,0.0,1.0,59,0.00,,---,0.00,VWS V13.01,2013-09-19 04:33:00,
2013-09-18 21:38:00,61.8,47.8,26.41,WNW,296,0.0,1.0,60,0.00,,---,0.00,VWS V13.01,2013-09-19 04:38:00,
2013-09-18 21:43:00,61.7,48.1,26.41,WNW,296,0.0,1.0,61,0.00,,---,0.00,VWS V13.01,2013-09-19 04:43:00,
2013-09-18 21:48:00,61.7,48.1,26.41,WNW,296,0.0,1.0,61,0.00,,---,0.00,VWS V13.01,2013-09-19 04:48:00,
2013-09-18 21:53:00,61.6,47.6,26.41,WNW,296,0.0,1.0,60,0.00,,---,0.00,VWS V13.01,2013-09-19 04:53:00,
2013-09-18 21:58:00,61.4,47.4,26.41,WNW,296,0.0,1.0,60,0.00,,---,0.00,VWS V13.01,2013-09-19 04:58:00,
2013-09-18 22:03:00,61.2,47.7,26.41,WNW,296,0.0,0.0,61,0.00,,---,0.00,VWS V13.01,2013-09-19 05:03:00,
2013-09-18 22:08:00,61.1,47.6,26.41,WNW,296,0.0,0.0,61,0.00,,---,0.00,VWS V13.01,2013-09-19 05:08:00,
2013-09-18 22:13:00,60.9,47.4,26.41,WNW,296,0.0,0.0,61,0.00,,---,0.00,VWS V13.01,2013-09-19 05:13:00,
2013-09-18 22:18:00,60.7,48.0,26.41,WNW,296,1.0,1.0,63,0.00,,---,0.00,VWS V13.01,2013-09-19 05:18:00,
2013-09-18 22:23:00,60.6,48.0,26.41,WNW,296,0.0,1.0,63,0.00,,---,0.00,VWS V13.01,2013-09-19 05:23:00,
2013-09-18 22:28:00,60.7,48.0,26.41,WNW,296,0.0,1.0,63,0.00,,---,0.00,VWS V13.01,2013-09-19 05:28:00,
2013-09-18 22:33:00,60.8,47.7,26.41,WNW,296,0.0,2.0,62,0.00,,---,0.00,VWS V13.01,2013-09-19 05:33:00,
2013-09-18 22:38:00,61.0,47.9,26.41,WNW,296,0.0,2.0,62,0.00,,---,0.00,VWS V13.01,2013-09-19 05:38:00,
2013-09-18 22:43:00,61.1,48.0,26.41,WNW,296,0.0,2.0,62,0.00,,---,0.00,VWS V13.01,2013-09-19 05:43:00,
2013-09-18 22:48:00,61.1,48.0,26.41,WNW,296,0.0,2.0,62,0.00,,---,0.00,VWS V13.01,2013-09-19 05:48:00,
2013-09-18 22:53:00,61.0,47.9,26.41,WNW,296,0.0,2.0,62,0.00,,---,0.00,VWS V13.01,2013-09-19 05:53:00,
2013-09-18 22:58:00,60.9,48.2,26.43,WNW,296,0.0,2.0,63,0.00,,---,0.00,VWS V13.01,2013-09-19 05:58:00,
2013-09-18 23:03:00,60.8,47.7,26.43,WNW,296,0.0,0.0,62,0.00,,---,0.00,VWS V13.01,2013-09-19 06:03:00,
2013-09-18 23:08:00,60.7,47.6,26.43,WNW,296,0.0,0.0,62,0.00,,---,0.00,VWS V13.01,2013-09-19 06:08:00,
2013-09-18 23:13:00,60.5,47.4,26.43,WNW,296,0.0,0.0,62,0.00,,---,0.00,VWS V13.01,2013-09-19 06:13:00,
2013-09-18 23:18:00,60.3,47.2,26.43,WNW,296,0.0,0.0,62,0.00,,---,0.00,VWS V13.01,2013-09-19 06:18:00,
2013-09-18 23:23:00,60.1,47.0,26.43,WNW,296,0.0,0.0,62,0.00,,---,0.00,VWS V13.01,2013-09-19 06:23:00,
2013-09-18 23:28:00,60.0,47.0,26.43,WNW,296,0.0,0.0,62,0.00,,---,0.00,VWS V13.01,2013-09-19 06:28:00,
2013-09-18 23:33:00,59.8,47.2,26.43,WNW,296,0.0,0.0,63,0.00,,---,0.00,VWS V13.01,2013-09-19 06:33:00,
2013-09-18 23:38:00,59.6,48.2,26.43,WNW,296,0.0,0.0,66,0.00,,---,0.00,VWS V13.01,2013-09-19 06:38:00,
2013-09-18 23:43:00,59.5,48.2,26.43,WNW,296,0.0,0.0,66,0.00,,---,0.00,VWS V13.01,2013-09-19 06:43:00,
2013-09-18 23:48:00,59.4,47.7,26.43,WNW,296,0.0,0.0,65,0.00,,---,0.00,VWS V13.01,2013-09-19 06:48:00,
2013-09-18 23:54:00,59.2,47.5,26.43,WNW,296,0.0,0.0,65,0.00,,---,0.00,VWS V13.01,2013-09-19 06:54:00,
2013-09-18 23:59:00,59.0,47.7,26.43,WNW,296,0.0,0.0,66,0.00,,---,0.00,VWS V13.01,2013-09-19 06:59:00,